Time;durP1;ratioP1;P1;durP2;ratioP2;P2;SDS_P1;SDS_P2;PMS_P1;PMS_P2;Temp;Humidity;BMP_temperature;BMP_pressure;BME280_temperature;BME280_humidity;BME280_pressure;Samples;Min_cycle;Max_cycle;Signal;HPM_P1;HPM_P2
2022/06/02 00:00:54;;;;;;;;;6.00;6.00;;;;;16.16;43.55;101452.75;5057303;28;45966;-70
2022/06/02 00:03:30;;;;;;;;;3.00;2.00;;;;;16.13;44.18;101462.44;5056350;28;45617;-70
2022/06/02 00:06:14;;;;;;;;;3.50;3.50;;;;;16.10;43.59;101462.56;5044818;28;45714;-70
2022/06/02 00:08:53;;;;;;;;;4.75;4.00;;;;;16.08;43.52;101467.03;5054869;28;47111;-70
2022/06/02 00:11:43;;;;;;;;;4.00;3.00;;;;;16.07;43.33;101469.72;5053940;28;45888;-70
2022/06/02 00:14:40;;;;;;;;;4.00;4.00;;;;;16.04;43.43;101475.94;5055503;28;45515;-67
2022/06/02 00:17:33;;;;;;;;;4.00;4.00;;;;;16.01;44.40;101470.78;5039405;28;45538;-68
2022/06/02 00:20:08;;;;;;;;;6.50;3.25;;;;;15.93;43.86;101461.50;5055489;28;45510;-67
2022/06/02 00:22:55;;;;;;;;;3.00;3.00;;;;;15.90;44.92;101464.25;5058615;28;45286;-68
2022/06/02 00:25:34;;;;;;;;;3.25;3.00;;;;;15.82;44.31;101473.28;5048606;28;45229;-67
2022/06/02 00:28:05;;;;;;;;;3.00;3.00;;;;;15.81;44.72;101482.00;5062007;28;45487;-68
2022/06/02 00:30:43;;;;;;;;;2.25;2.25;;;;;15.78;45.16;101489.13;5061728;28;45342;-68
2022/06/02 00:33:14;;;;;;;;;4.00;4.00;;;;;15.74;44.87;101487.56;5061972;28;45392;-69
2022/06/02 00:35:50;;;;;;;;;5.00;3.75;;;;;15.69;45.58;101485.09;5062193;28;45239;-66
2022/06/02 00:38:24;;;;;;;;;3.00;3.00;;;;;15.68;45.12;101491.25;5061978;28;45336;-66
2022/06/02 00:40:50;;;;;;;;;2.75;2.50;;;;;15.66;45.40;101490.47;5059986;28;46556;-65
2022/06/02 00:43:15;;;;;;;;;4.25;4.25;;;;;15.66;45.64;101484.38;5062267;28;46739;-66
2022/06/02 00:45:45;;;;;;;;;2.50;2.00;;;;;15.63;47.11;101498.44;5061151;28;45414;-65
2022/06/02 00:48:21;;;;;;;;;3.00;3.00;;;;;15.62;46.21;101495.88;5061103;28;45224;-65
2022/06/02 00:51:06;;;;;;;;;3.50;3.50;;;;;15.63;46.12;101494.97;5059099;28;46565;-64
2022/06/02 00:53:40;;;;;;;;;4.00;4.00;;;;;15.61;46.58;101496.75;5059286;28;45623;-65
2022/06/02 00:59:17;;;;;;;;;3.75;3.75;;;;;15.54;46.61;101488.25;5060946;28;45294;-65
2022/06/02 01:01:42;;;;;;;;;5.00;3.25;;;;;15.48;46.38;101486.72;5061668;28;45337;-64
2022/06/02 01:04:15;;;;;;;;;4.00;4.00;;;;;15.45;46.22;101484.19;5061611;28;45310;-65
2022/06/02 01:06:56;;;;;;;;;8.00;4.00;;;;;15.41;46.14;101487.81;5057675;28;45424;-65
2022/06/02 01:09:39;;;;;;;;;4.00;4.00;;;;;15.36;46.12;101494.13;5061823;28;45305;-66
2022/06/02 01:12:23;;;;;;;;;6.00;4.25;;;;;15.31;46.42;101490.84;5060458;28;45479;-66
2022/06/02 01:15:10;;;;;;;;;6.00;5.00;;;;;15.28;46.84;101483.94;5061335;28;45778;-66
2022/06/02 01:17:45;;;;;;;;;3.50;3.00;;;;;15.27;47.12;101495.31;5061652;28;45395;-64
2022/06/02 01:20:13;;;;;;;;;6.00;5.00;;;;;15.27;46.74;101484.84;5058247;28;45434;-64
2022/06/02 01:23:05;;;;;;;;;8.25;5.25;;;;;15.23;47.73;101478.03;5060581;28;45603;-64
2022/06/02 01:25:58;;;;;;;;;4.00;4.00;;;;;15.18;47.92;101480.78;5059607;28;45481;-64
2022/06/02 01:28:44;;;;;;;;;5.00;5.00;;;;;15.18;47.83;101478.16;5060631;28;45366;-65
2022/06/02 01:31:16;;;;;;;;;4.00;3.25;;;;;15.17;47.87;101480.81;5059853;28;45350;-66
2022/06/02 01:33:49;;;;;;;;;5.75;4.75;;;;;15.13;48.08;101476.63;5060835;28;46739;-66
2022/06/02 01:36:49;;;;;;;;;5.50;3.75;;;;;15.14;47.84;101480.94;5060065;28;45448;-66
2022/06/02 01:39:28;;;;;;;;;5.00;3.50;;;;;15.11;47.96;101486.28;5039315;28;45366;-65
2022/06/02 01:42:17;;;;;;;;;4.25;4.25;;;;;15.06;48.41;101480.34;5058419;28;45292;-65
2022/06/02 01:45:17;;;;;;;;;5.00;3.75;;;;;15.03;47.96;101483.09;5059306;28;45628;-65
2022/06/02 01:47:46;;;;;;;;;4.75;4.75;;;;;14.96;48.62;101479.81;5044263;28;45317;-67
2022/06/02 01:50:25;;;;;;;;;4.75;4.25;;;;;14.95;48.54;101482.47;5061296;28;45534;-68
2022/06/02 01:53:18;;;;;;;;;6.50;5.00;;;;;14.89;48.82;101494.88;5060342;28;45430;-67
2022/06/02 01:55:43;;;;;;;;;7.50;5.50;;;;;14.83;48.85;101499.47;5060389;28;46201;-67
2022/06/02 01:58:17;;;;;;;;;4.00;3.00;;;;;14.78;48.38;101502.19;5060866;28;45397;-66
2022/06/02 02:00:46;;;;;;;;;5.75;5.75;;;;;14.71;48.97;101500.69;5060503;28;45322;-66
2022/06/02 02:03:14;;;;;;;;;6.75;6.00;;;;;14.68;49.56;101495.56;5057095;28;45425;-67
2022/06/02 02:06:33;;;;;;;;;5.50;5.50;;;;;14.66;50.04;101491.28;5057958;28;45416;-66
2022/06/02 02:09:35;;;;;;;;;5.00;5.00;;;;;14.61;49.91;101494.88;5015100;28;45830;-66
2022/06/02 02:12:01;;;;;;;;;3.00;3.00;;;;;14.56;49.50;101495.94;5053185;28;45653;-67
2022/06/02 02:14:32;;;;;;;;;5.50;5.50;;;;;14.55;49.03;101497.72;5049938;28;45454;-67
2022/06/02 02:17:22;;;;;;;;;5.00;4.75;;;;;14.52;49.83;101487.34;5057145;28;48422;-66
2022/06/02 02:20:22;;;;;;;;;6.75;5.25;;;;;14.49;50.06;101490.06;5059079;28;45351;-72
2022/06/02 02:22:54;;;;;;;;;5.75;4.00;;;;;14.43;50.24;101486.78;5060443;28;45220;-67
2022/06/02 02:25:40;;;;;;;;;5.75;5.75;;;;;14.40;50.84;101490.31;5060632;28;45441;-67
2022/06/02 02:28:24;;;;;;;;;5.00;5.00;;;;;14.38;50.98;101489.50;5059981;28;46288;-70
2022/06/02 02:31:14;;;;;;;;;5.25;5.25;;;;;14.36;50.70;101487.84;5059294;28;45435;-66
2022/06/02 02:33:58;;;;;;;;;4.50;4.50;;;;;14.31;50.82;101486.22;5048417;28;45445;-65
2022/06/02 02:37:01;;;;;;;;;4.75;4.75;;;;;14.28;51.27;101486.34;5058595;28;45461;-65
2022/06/02 02:39:56;;;;;;;;;6.50;6.50;;;;;14.24;51.26;101487.34;5059938;28;45562;-65
2022/06/02 02:42:30;;;;;;;;;6.00;5.50;;;;;14.21;51.12;101487.41;5058268;28;45190;-66
2022/06/02 02:45:34;;;;;;;;;11.00;9.50;;;;;14.22;50.98;101494.38;5047577;28;45265;-65
2022/06/02 02:48:10;;;;;;;;;9.00;6.00;;;;;14.22;51.27;101490.91;5022421;28;45321;-64
2022/06/02 02:50:46;;;;;;;;;12.25;9.00;;;;;14.20;50.93;101487.47;5059847;28;46381;-64
2022/06/02 02:53:29;;;;;;;;;7.75;7.00;;;;;14.17;53.08;101487.56;5060221;28;45441;-64
2022/06/02 02:56:06;;;;;;;;;4.75;4.75;;;;;14.15;52.00;101491.97;5073789;28;45829;-64
2022/06/02 02:58:50;;;;;;;;;13.50;8.50;;;;;14.13;52.99;101491.16;5058915;28;45227;-64
2022/06/02 03:01:58;;;;;;;;;7.00;7.00;;;;;14.06;52.40;101490.50;5058175;28;47861;-64
2022/06/02 03:04:42;;;;;;;;;5.25;5.25;;;;;14.00;52.88;101493.28;5018826;28;45551;-63
2022/06/02 03:07:07;;;;;;;;;7.25;6.00;;;;;13.97;52.96;101488.16;5059671;28;45238;-63
2022/06/02 03:09:32;;;;;;;;;6.00;6.00;;;;;13.97;53.04;101493.38;5057757;28;45365;-63
2022/06/02 03:12:11;;;;;;;;;7.33;7.33;;;;;13.96;53.09;101491.66;5059030;28;45351;-64
2022/06/02 03:14:46;;;;;;;;;6.00;4.00;;;;;13.95;52.56;101488.19;5059581;28;45374;-61
2022/06/02 03:17:30;;;;;;;;;7.25;6.00;;;;;13.95;52.83;101488.19;5059465;28;45458;-62
2022/06/02 03:20:06;;;;;;;;;7.00;7.00;;;;;13.92;54.89;101479.59;5059393;28;45501;-61
2022/06/02 03:22:59;;;;;;;;;6.50;5.50;;;;;13.87;53.28;101468.44;5059631;28;46694;-61
2022/06/02 03:25:38;;;;;;;;;6.25;5.25;;;;;13.86;52.74;101471.94;5059366;28;45830;-63
2022/06/02 03:28:29;;;;;;;;;9.75;6.25;;;;;13.85;53.73;101480.69;5059301;28;45338;-62
2022/06/02 03:31:19;;;;;;;;;10.25;8.50;;;;;13.80;53.45;101486.03;5091092;27;45718;-62
2022/06/02 03:33:56;;;;;;;;;7.50;7.50;;;;;13.79;53.32;101489.53;5046811;28;47205;-62
2022/06/02 03:36:47;;;;;;;;;6.00;6.00;;;;;13.79;54.10;101493.91;5059331;28;45219;-61
2022/06/02 03:39:36;;;;;;;;;10.25;8.75;;;;;13.74;54.16;101494.03;5059358;28;45402;-61
2022/06/02 03:42:27;;;;;;;;;8.50;8.50;;;;;13.74;54.01;101498.41;5058786;28;45625;-62
2022/06/02 03:45:15;;;;;;;;;9.00;8.25;;;;;13.75;54.01;101502.75;5059153;28;46119;-64
2022/06/02 03:48:17;;;;;;;;;8.50;8.50;;;;;13.78;54.71;101505.25;5058895;28;45767;-64
2022/06/02 03:51:17;;;;;;;;;12.25;8.25;;;;;13.75;53.82;101500.97;5058615;28;45332;-66
2022/06/02 03:54:00;;;;;;;;;8.75;8.75;;;;;13.72;54.79;101513.28;5059174;28;45475;-64
2022/06/02 03:56:57;;;;;;;;;12.00;10.00;;;;;13.69;54.39;101524.66;5059033;28;45437;-65
2022/06/02 04:00:19;;;;;;;;;14.00;10.00;;;;;13.68;54.46;101515.97;5059427;28;45388;-63
2022/06/02 04:02:53;;;;;;;;;8.75;8.25;;;;;13.66;54.00;101501.25;5008719;28;45564;-64
2022/06/02 04:05:52;;;;;;;;;10.50;9.25;;;;;13.67;54.24;101501.22;5020244;28;45508;-64
2022/06/02 04:08:43;;;;;;;;;8.25;8.00;;;;;13.66;53.95;101485.59;5056582;28;46368;-66
2022/06/02 04:11:17;;;;;;;;;9.00;9.00;;;;;13.66;53.98;101506.47;5053164;28;45414;-64
2022/06/02 04:14:09;;;;;;;;;12.25;9.00;;;;;13.68;53.73;101517.75;5058986;28;46256;-62
2022/06/02 04:16:43;;;;;;;;;9.25;7.25;;;;;13.66;54.70;101515.16;5062079;28;45316;-62
2022/06/02 04:22:39;;;;;;;;;11.75;7.25;;;;;13.70;54.29;101519.41;5051161;28;45691;-63
2022/06/02 04:25:17;;;;;;;;;10.00;9.00;;;;;13.75;54.28;101511.44;5060853;28;45502;-63
2022/06/02 04:27:42;;;;;;;;;12.00;9.75;;;;;13.79;54.06;101512.19;5060450;28;46362;-63
2022/06/02 04:30:35;;;;;;;;;11.67;10.33;;;;;13.80;54.91;101511.28;5061392;28;46613;-63
2022/06/02 04:33:22;;;;;;;;;12.25;9.50;;;;;13.78;54.75;101508.72;5077429;28;45838;-63
2022/06/02 04:35:50;;;;;;;;;10.50;10.50;;;;;13.81;54.48;101526.91;5061814;28;45168;-63
2022/06/02 04:38:16;;;;;;;;;12.25;8.75;;;;;13.86;54.52;101526.81;5060677;28;45989;-63
2022/06/02 04:41:02;;;;;;;;;10.25;9.25;;;;;13.94;54.26;101528.28;5055994;28;45827;-63
2022/06/02 04:43:43;;;;;;;;;8.25;8.25;;;;;14.00;53.97;101533.34;5056516;28;45287;-62
2022/06/02 04:46:34;;;;;;;;;12.00;11.00;;;;;14.09;53.99;101534.84;5060973;28;45264;-62
2022/06/02 04:49:14;;;;;;;;;11.00;9.75;;;;;14.17;54.29;101529.38;5059167;28;45370;-63
2022/06/02 04:52:05;;;;;;;;;12.50;10.00;;;;;14.19;53.99;101523.19;5053219;28;46438;-63
2022/06/02 04:54:54;;;;;;;;;10.50;9.75;;;;;14.23;53.80;101530.06;5060509;28;45848;-63
2022/06/02 04:57:38;;;;;;;;;11.00;8.50;;;;;14.31;53.87;101538.53;5042796;28;45553;-63
2022/06/02 05:00:10;;;;;;;;;11.00;10.25;;;;;14.36;53.56;101534.91;5061455;28;45241;-63
2022/06/02 05:03:02;;;;;;;;;13.50;11.50;;;;;14.44;53.39;101533.81;5061249;28;45500;-63
2022/06/02 05:05:33;;;;;;;;;11.00;11.00;;;;;14.53;52.92;101527.44;5061111;28;45327;-63
2022/06/02 05:08:04;;;;;;;;;10.00;9.25;;;;;14.56;52.88;101524.72;5061289;28;45442;-63
2022/06/02 05:10:48;;;;;;;;;12.75;11.50;;;;;14.60;52.81;101531.56;5059753;28;45339;-63
2022/06/02 05:13:19;;;;;;;;;11.50;10.50;;;;;14.62;52.75;101521.94;5060798;28;46551;-63
2022/06/02 05:16:22;;;;;;;;;11.00;10.00;;;;;14.64;52.72;101527.97;5059423;28;45961;-64
2022/06/02 05:19:25;;;;;;;;;10.75;10.75;;;;;14.61;53.39;101534.13;5048936;28;45446;-65
2022/06/02 05:22:17;;;;;;;;;13.50;9.75;;;;;14.59;53.26;101532.47;5060786;28;45291;-64
2022/06/02 05:25:12;;;;;;;;;14.00;12.75;;;;;14.63;53.45;101528.88;5060514;28;46442;-65
2022/06/02 05:28:31;;;;;;;;;11.25;8.75;;;;;14.67;53.92;101540.09;5059261;28;45821;-64
2022/06/02 05:31:24;;;;;;;;;12.75;11.50;;;;;14.69;52.86;101531.28;5009510;28;45392;-66
2022/06/02 05:34:08;;;;;;;;;10.75;10.75;;;;;14.72;53.60;101522.47;5047670;28;45365;-65
2022/06/02 05:37:03;;;;;;;;;10.25;10.25;;;;;14.77;53.10;101531.88;5058866;28;47095;-66
2022/06/02 05:39:31;;;;;;;;;14.00;11.25;;;;;14.83;53.11;101526.47;5060231;28;45868;-64
2022/06/02 05:42:11;;;;;;;;;11.75;11.00;;;;;14.85;53.24;101526.44;5060129;28;45304;-64
2022/06/02 05:44:55;;;;;;;;;12.25;8.25;;;;;14.86;53.36;101533.38;5059471;28;45521;-64
2022/06/02 05:47:58;;;;;;;;;11.50;10.50;;;;;14.89;53.49;101533.25;5059627;28;45461;-65
2022/06/02 05:50:38;;;;;;;;;12.00;9.00;;;;;14.96;53.17;101541.75;5059992;28;45200;-68
2022/06/02 05:53:34;;;;;;;;;13.25;10.25;;;;;15.09;53.00;101528.22;5046650;28;45394;-66
2022/06/02 05:56:10;;;;;;;;;16.25;11.75;;;;;15.18;53.01;101537.53;5059958;28;45392;-65
2022/06/02 05:59:01;;;;;;;;;13.00;12.00;;;;;15.24;52.86;101532.09;5059607;28;45273;-67
2022/06/02 06:01:48;;;;;;;;;10.75;10.75;;;;;15.31;52.75;101527.50;5050051;28;45654;-67
2022/06/02 06:04:41;;;;;;;;;9.75;9.00;;;;;15.38;52.63;101537.69;5058522;28;45438;-66
2022/06/02 06:07:25;;;;;;;;;14.00;10.25;;;;;15.45;52.59;101539.22;5052922;28;45299;-65
2022/06/02 06:09:50;;;;;;;;;9.50;9.50;;;;;15.42;52.51;101538.47;5059229;28;45610;-70
2022/06/02 06:12:41;;;;;;;;;15.00;12.00;;;;;15.43;52.43;101532.31;5059659;28;45385;-66
2022/06/02 06:15:15;;;;;;;;;13.00;12.75;;;;;15.38;52.79;101540.31;5059764;28;45283;-67
2022/06/02 06:17:40;;;;;;;;;12.75;10.00;;;;;15.42;53.13;101541.94;5059958;28;45493;-63
2022/06/02 06:20:53;;;;;;;;;11.75;11.50;;;;;15.51;52.97;101546.84;5047093;28;46394;-66
2022/06/02 06:23:27;;;;;;;;;13.00;12.00;;;;;15.48;52.75;101540.88;5038975;28;45367;-64
2022/06/02 06:26:22;;;;;;;;;11.00;9.25;;;;;15.51;53.42;101540.75;5059756;28;45354;-63
2022/06/02 06:28:54;;;;;;;;;12.00;11.50;;;;;15.51;52.93;101538.13;5048184;28;45675;-64
2022/06/02 06:31:22;;;;;;;;;12.50;11.25;;;;;15.50;52.97;101541.66;5058381;28;45473;-63
2022/06/02 06:33:56;;;;;;;;;14.75;14.75;;;;;15.47;52.76;101540.00;5057169;28;45371;-64
2022/06/02 06:36:40;;;;;;;;;13.75;13.50;;;;;15.48;52.67;101533.88;5055997;28;45431;-64
2022/06/02 06:39:08;;;;;;;;;14.75;13.00;;;;;15.57;52.52;101535.28;5058077;28;45669;-63
2022/06/02 06:41:52;;;;;;;;;18.00;12.75;;;;;15.72;52.61;101532.16;5057064;28;46600;-64
2022/06/02 06:44:35;;;;;;;;;12.75;12.50;;;;;15.89;52.65;101526.31;5055350;28;46005;-64
2022/06/02 06:47:08;;;;;;;;;17.75;13.75;;;;;16.11;52.18;101537.69;5057974;28;45281;-64
2022/06/02 06:49:56;;;;;;;;;14.50;14.50;;;;;16.27;51.89;101530.09;5058684;28;45255;-63
2022/06/02 06:52:35;;;;;;;;;13.25;12.50;;;;;16.41;51.57;101516.44;5058752;28;45504;-64
2022/06/02 06:55:13;;;;;;;;;12.00;12.00;;;;;16.53;51.46;101523.84;5054606;28;45806;-63
2022/06/02 06:58:11;;;;;;;;;19.00;15.50;;;;;16.71;50.96;101535.41;5056717;28;45475;-63
2022/06/02 07:01:12;;;;;;;;;11.00;11.00;;;;;16.87;50.57;101527.78;5058280;28;45532;-63
2022/06/02 07:03:53;;;;;;;;;15.25;12.25;;;;;17.00;49.96;101532.44;5026833;28;47179;-63
2022/06/02 07:06:40;;;;;;;;;12.00;11.25;;;;;17.07;49.61;101538.31;5058331;28;45254;-62
2022/06/02 07:09:14;;;;;;;;;12.75;11.75;;;;;17.18;49.37;101541.31;5050451;28;45351;-65
2022/06/02 07:14:56;;;;;;;;;16.50;11.50;;;;;17.46;49.04;101537.53;5058251;28;45796;-63
2022/06/02 07:17:35;;;;;;;;;16.00;12.00;;;;;17.60;49.04;101540.38;5058436;28;45772;-63
2022/06/02 07:20:22;;;;;;;;;14.00;11.50;;;;;17.78;48.60;101542.25;5058329;28;45224;-67
2022/06/02 07:23:05;;;;;;;;;12.50;12.50;;;;;17.92;47.96;101552.16;5044043;28;45622;-60
2022/06/02 07:25:44;;;;;;;;;11.00;8.75;;;;;17.99;47.18;101540.41;5058403;28;46845;-59
2022/06/02 07:28:22;;;;;;;;;15.75;10.75;;;;;18.09;47.58;101548.75;5058568;28;45356;-59
2022/06/02 07:31:22;;;;;;;;;14.50;11.75;;;;;18.25;47.23;101536.59;5057056;28;45555;-59
2022/06/02 07:34:13;;;;;;;;;11.25;8.00;;;;;18.39;46.74;101547.31;5048068;28;45323;-60
2022/06/02 07:37:16;;;;;;;;;13.00;10.00;;;;;18.53;46.21;101549.31;5062157;28;46425;-60
2022/06/02 07:40:08;;;;;;;;;11.25;11.25;;;;;18.60;45.69;101544.59;5060532;28;45361;-59
2022/06/02 07:42:57;;;;;;;;;15.75;14.00;;;;;18.76;45.82;101545.59;5061197;28;45443;-58
2022/06/02 07:45:41;;;;;;;;;24.50;21.25;;;;;18.92;45.17;101553.59;5057374;28;45534;-64
2022/06/02 07:48:22;;;;;;;;;14.00;12.50;;;;;19.04;45.17;101539.84;5061518;28;45369;-61
2022/06/02 07:51:17;;;;;;;;;11.00;11.00;;;;;19.21;44.81;101538.97;5061447;28;46356;-61
2022/06/02 07:53:54;;;;;;;;;12.50;10.75;;;;;19.29;44.65;101539.44;5060723;28;45518;-61
2022/06/02 07:56:24;;;;;;;;;9.50;8.50;;;;;19.35;43.98;101539.97;5061579;28;45370;-61
2022/06/02 07:59:32;;;;;;;;;10.00;9.75;;;;;19.28;43.41;101545.66;5061795;28;45367;-61
2022/06/02 08:02:14;;;;;;;;;11.00;10.00;;;;;19.12;43.60;101543.78;5056308;28;45268;-63
2022/06/02 08:04:58;;;;;;;;;9.00;7.75;;;;;19.08;43.51;101530.84;5062324;28;45534;-61
2022/06/02 08:07:39;;;;;;;;;9.25;8.00;;;;;19.11;44.01;101528.91;5058421;28;45445;-61
2022/06/02 08:10:20;;;;;;;;;8.50;7.50;;;;;19.26;43.27;101531.69;5059462;28;46464;-62
2022/06/02 08:12:53;;;;;;;;;8.00;7.75;;;;;19.37;42.61;101519.66;5059846;28;45564;-61
2022/06/02 08:15:44;;;;;;;;;10.00;10.00;;;;;19.57;42.54;101517.78;5060161;28;45371;-61
2022/06/02 08:18:15;;;;;;;;;13.00;10.75;;;;;19.82;42.91;101519.97;5060761;28;45487;-62
2022/06/02 08:20:44;;;;;;;;;8.00;7.00;;;;;20.10;41.64;101519.34;5060127;28;48254;-61
2022/06/02 08:23:25;;;;;;;;;12.75;9.75;;;;;20.39;41.65;101517.72;5061727;28;45411;-61
2022/06/02 08:25:51;;;;;;;;;9.50;7.25;;;;;20.68;41.17;101506.41;5061827;28;45480;-61
2022/06/02 08:28:52;;;;;;;;;10.00;7.75;;;;;21.02;41.21;101505.28;5061468;28;45227;-61
2022/06/02 08:31:20;;;;;;;;;10.25;7.00;;;;;21.32;40.40;101509.72;5060930;28;46902;-61
2022/06/02 08:33:56;;;;;;;;;8.00;8.00;;;;;21.58;40.13;101508.13;5061732;28;45212;-62
2022/06/02 08:36:34;;;;;;;;;7.00;7.00;;;;;21.85;38.49;101504.66;5061688;28;45476;-62
2022/06/02 08:39:17;;;;;;;;;9.75;7.75;;;;;21.93;38.48;101498.88;5061561;28;45417;-62
2022/06/02 08:42:07;;;;;;;;;5.75;5.50;;;;;22.00;38.87;101497.53;5051818;28;45338;-62
2022/06/02 08:45:07;;;;;;;;;8.75;8.00;;;;;22.12;38.17;101496.78;5059302;28;45281;-61
2022/06/02 08:48:15;;;;;;;;;9.00;8.50;;;;;22.20;37.77;101492.78;5061300;28;45332;-61
2022/06/02 08:51:16;;;;;;;;;8.75;8.75;;;;;22.35;37.97;101494.47;5061389;28;45403;-61
2022/06/02 08:53:50;;;;;;;;;9.00;6.00;;;;;22.43;37.73;101487.75;5037413;28;45605;-61
2022/06/02 08:56:53;;;;;;;;;9.00;7.00;;;;;22.40;36.61;101479.13;5061154;28;45655;-61
2022/06/02 08:59:21;;;;;;;;;6.25;6.25;;;;;22.28;37.53;101480.78;5060938;28;45625;-61
2022/06/02 09:02:01;;;;;;;;;7.25;6.25;;;;;22.26;36.89;101489.78;5061669;28;45324;-61
2022/06/02 09:04:48;;;;;;;;;9.00;6.50;;;;;22.30;36.96;101493.91;5050035;28;46549;-61
2022/06/02 09:07:22;;;;;;;;;8.00;7.00;;;;;22.32;36.44;101482.28;5061099;28;45305;-61
2022/06/02 09:10:12;;;;;;;;;6.00;6.00;;;;;22.44;35.91;101484.13;5061626;28;45262;-61
2022/06/02 09:12:53;;;;;;;;;5.75;5.75;;;;;22.40;35.42;101487.91;5050846;28;45371;-61
2022/06/02 09:15:30;;;;;;;;;7.00;6.00;;;;;22.45;36.01;101487.63;5061034;28;46796;-61
2022/06/02 09:18:06;;;;;;;;;5.00;4.25;;;;;22.54;35.51;101480.88;5061384;28;45461;-61
2022/06/02 09:20:58;;;;;;;;;8.25;6.25;;;;;22.68;35.53;101486.13;5049631;28;45367;-62
2022/06/02 09:23:55;;;;;;;;;6.75;6.00;;;;;22.75;35.10;101471.50;5061005;28;45279;-61
2022/06/02 09:26:29;;;;;;;;;6.00;5.00;;;;;22.74;34.21;101465.34;5060568;28;45363;-61
2022/06/02 09:29:03;;;;;;;;;6.00;3.75;;;;;22.82;34.15;101467.50;5060904;28;45269;-61
2022/06/02 09:32:02;;;;;;;;;6.00;6.00;;;;;22.92;34.04;101471.25;5059641;28;45288;-62
2022/06/02 09:34:46;;;;;;;;;6.00;6.00;;;;;23.10;34.11;101482.41;5060845;28;45292;-62
2022/06/02 09:37:38;;;;;;;;;6.00;6.00;;;;;23.25;33.76;101489.31;5059234;28;46921;-61
2022/06/02 09:40:11;;;;;;;;;5.50;4.75;;;;;23.27;33.44;101482.09;5060662;28;45495;-61
2022/06/02 09:42:52;;;;;;;;;5.75;5.75;;;;;23.40;34.02;101486.53;5059122;28;45317;-62
2022/06/02 09:45:32;;;;;;;;;5.50;4.50;;;;;23.34;32.61;101480.72;5060213;28;45366;-61
2022/06/02 09:48:12;;;;;;;;;5.50;4.50;;;;;23.37;32.52;101477.84;5060129;28;46390;-61
2022/06/02 09:51:00;;;;;;;;;5.00;3.75;;;;;23.56;32.58;101471.25;5059981;28;46081;-61
2022/06/02 09:53:31;;;;;;;;;6.50;6.00;;;;;23.76;32.24;101473.38;5060656;28;45315;-61
2022/06/02 09:56:00;;;;;;;;;4.25;4.25;;;;;23.84;32.33;101492.28;5060110;28;45454;-61
2022/06/02 09:58:31;;;;;;;;;3.50;3.50;;;;;23.81;32.11;101481.00;5059335;28;46576;-61
2022/06/02 10:01:33;;;;;;;;;7.00;7.00;;;;;23.73;31.87;101484.22;5059542;28;45239;-61
2022/06/02 10:04:24;;;;;;;;;4.50;4.25;;;;;23.67;31.87;101489.97;5053032;28;45579;-61
2022/06/02 10:07:13;;;;;;;;;4.50;3.50;;;;;23.70;31.40;101492.41;5059391;28;45496;-61
2022/06/02 10:09:54;;;;;;;;;4.50;4.50;;;;;23.69;30.93;101496.03;5059635;28;46439;-62
2022/06/02 10:12:54;;;;;;;;;4.00;4.00;;;;;23.66;31.16;101488.28;5047878;28;45275;-61
2022/06/02 10:15:38;;;;;;;;;5.75;5.00;;;;;23.65;31.15;101494.53;5057580;28;45681;-62
2022/06/02 10:18:18;;;;;;;;;4.75;3.50;;;;;23.71;31.67;101475.53;5057834;28;45380;-62
2022/06/02 10:21:16;;;;;;;;;3.00;3.00;;;;;23.81;31.17;101473.06;5059433;28;46240;-62
2022/06/02 10:23:44;;;;;;;;;6.00;5.25;;;;;23.92;30.75;101473.16;5048082;28;45272;-62
2022/06/02 10:26:09;;;;;;;;;4.25;4.25;;;;;24.01;30.01;101476.94;5059401;28;45331;-62
2022/06/02 10:28:35;;;;;;;;;6.00;4.25;;;;;24.05;31.06;101467.81;5059683;28;45210;-62
2022/06/02 10:31:27;;;;;;;;;4.00;4.00;;;;;24.07;29.36;101469.38;5058070;28;45471;-62
2022/06/02 10:34:18;;;;;;;;;4.00;4.00;;;;;24.06;29.60;101461.53;5049184;28;45267;-62
2022/06/02 10:37:01;;;;;;;;;5.50;4.00;;;;;24.07;30.08;101466.72;5059289;28;45480;-62
2022/06/02 10:39:50;;;;;;;;;5.00;5.00;;;;;24.10;30.13;101463.84;5059201;28;45704;-62
2022/06/02 10:42:46;;;;;;;;;4.75;4.75;;;;;24.18;30.56;101458.81;5058682;28;45678;-63
2022/06/02 10:45:48;;;;;;;;;4.25;4.25;;;;;24.13;29.63;101453.00;5047785;28;45378;-63
2022/06/02 10:48:26;;;;;;;;;5.50;4.00;;;;;23.94;29.44;101456.16;5046844;28;45352;-61
2022/06/02 10:51:36;;;;;;;;;4.00;4.00;;;;;23.82;29.56;101446.41;5058549;28;45298;-63
2022/06/02 10:54:27;;;;;;;;;3.50;3.50;;;;;23.79;30.64;101451.94;5043043;28;46314;-62
2022/06/02 10:57:25;;;;;;;;;7.00;6.00;;;;;23.82;31.09;101438.44;5059050;28;45275;-63
2022/06/02 11:00:19;;;;;;;;;4.75;4.00;;;;;23.90;31.30;101449.38;5049613;28;45234;-63
2022/06/02 11:03:20;;;;;;;;;1.00;1.00;;;;;24.01;30.50;101451.22;5032047;28;45361;-65
2022/06/02 11:06:04;;;;;;;;;4.50;4.25;;;;;24.07;31.20;101447.28;5059305;28;46519;-65
2022/06/02 11:09:07;;;;;;;;;4.00;4.00;;;;;24.21;30.76;101431.19;5059002;28;45302;-65
2022/06/02 11:11:50;;;;;;;;;5.00;5.00;;;;;24.26;30.75;101442.34;5059035;28;45316;-64
2022/06/02 11:14:18;;;;;;;;;7.50;6.50;;;;;24.30;30.75;101430.53;5056447;28;45833;-66
2022/06/02 11:17:10;;;;;;;;;7.25;6.00;;;;;24.47;31.38;101421.31;5058558;28;45461;-64
2022/06/02 11:20:13;;;;;;;;;6.00;6.00;;;;;24.69;31.18;101423.22;5037269;28;45529;-65
2022/06/02 11:23:06;;;;;;;;;8.00;6.00;;;;;24.76;30.77;101416.44;5059514;28;45291;-66
2022/06/02 11:26:15;;;;;;;;;8.25;7.00;;;;;24.85;31.04;101426.41;5059044;28;45459;-64
2022/06/02 11:28:59;;;;;;;;;7.00;7.00;;;;;25.04;30.91;101423.22;5047112;28;45717;-63
2022/06/02 11:32:04;;;;;;;;;5.75;5.75;;;;;25.18;30.84;101410.50;5057269;28;45232;-65
2022/06/02 11:35:03;;;;;;;;;5.75;5.75;;;;;25.11;31.14;101417.28;5058378;28;45304;-66
2022/06/02 11:37:59;;;;;;;;;5.50;5.50;;;;;24.94;30.57;101401.75;5058138;28;45295;-65
2022/06/02 11:40:41;;;;;;;;;5.25;5.25;;;;;24.97;29.79;101405.97;5047957;28;46629;-65
2022/06/02 11:43:24;;;;;;;;;5.00;5.00;;;;;25.13;30.83;101399.38;5057534;28;45575;-66
2022/06/02 11:46:27;;;;;;;;;7.75;5.75;;;;;25.13;31.03;101382.56;5057646;28;45403;-63
2022/06/02 11:49:14;;;;;;;;;7.00;6.00;;;;;25.08;31.18;101396.25;5056920;28;45449;-65
2022/06/02 11:51:49;;;;;;;;;5.00;5.00;;;;;24.97;30.29;101388.22;5057587;28;47250;-66
2022/06/02 11:54:20;;;;;;;;;7.75;6.50;;;;;24.88;31.11;101391.59;5058808;28;45623;-62
2022/06/02 11:57:10;;;;;;;;;5.00;5.00;;;;;24.80;29.94;101397.47;5058580;28;45378;-64
2022/06/02 12:00:06;;;;;;;;;5.00;3.75;;;;;24.88;30.32;101397.75;5057541;28;45454;-63
2022/06/02 12:02:47;;;;;;;;;6.25;5.00;;;;;24.94;29.37;101393.78;5057639;28;46573;-65
2022/06/02 12:05:34;;;;;;;;;3.75;3.00;;;;;24.98;28.39;101397.88;5056658;28;45409;-63
2022/06/02 12:08:17;;;;;;;;;3.50;2.75;;;;;24.94;28.31;101388.44;5059008;28;45370;-64
2022/06/02 12:10:55;;;;;;;;;5.75;3.00;;;;;24.88;27.74;101386.28;5051760;28;45241;-64
2022/06/02 12:13:20;;;;;;;;;7.00;6.00;;;;;24.97;28.67;101384.69;5053458;28;45365;-64
2022/06/02 12:16:12;;;;;;;;;4.75;4.75;;;;;25.13;28.04;101375.44;5057192;28;45553;-64
2022/06/02 12:18:55;;;;;;;;;5.00;5.00;;;;;25.41;28.08;101371.44;5048196;28;45299;-64
2022/06/02 12:21:58;;;;;;;;;8.50;8.50;;;;;25.59;27.81;101370.94;5058891;28;45533;-64
2022/06/02 12:24:39;;;;;;;;;3.75;3.00;;;;;25.81;26.95;101372.72;5060380;28;48187;-63
2022/06/02 12:27:23;;;;;;;;;5.00;3.75;;;;;26.00;27.29;101359.59;5061740;28;45545;-63
2022/06/02 12:30:00;;;;;;;;;5.50;5.50;;;;;26.11;26.58;101356.06;5060924;28;45262;-63
2022/06/02 12:32:37;;;;;;;;;3.75;3.00;;;;;26.33;26.30;101359.47;5061930;28;45409;-62
2022/06/02 12:35:22;;;;;;;;;7.75;3.25;;;;;26.63;25.98;101357.84;5060064;28;48179;-64
2022/06/02 12:37:58;;;;;;;;;4.50;4.50;;;;;26.91;25.96;101349.19;5061594;28;45725;-64
2022/06/02 12:40:54;;;;;;;;;3.25;2.25;;;;;27.07;25.46;101345.22;5062090;28;45326;-64
2022/06/02 12:43:45;;;;;;;;;7.25;6.00;;;;;27.15;25.83;101340.06;5061992;28;45311;-64
2022/06/02 12:46:21;;;;;;;;;8.00;5.00;;;;;27.21;24.81;101332.34;5061157;28;46462;-65
2022/06/02 12:49:01;;;;;;;;;4.00;4.00;;;;;27.33;25.17;101337.59;5061420;28;45252;-64